Terminal Aerodrome Forecast
Issued by NWS

Home | Current Version | Previous Version | Text Only | Print | Product List | Glossary On
Versions: 1 2 3 4 5 6 7 8 9 10 11 12 13 14 15 16 17 18
000
FTUS46 KSEW 300500
TAFOLM
TAF
KOLM 300524Z 3006/3106 00000KT P6SM BCFG SKC
      TEMPO 3006/3008 1SM BR FEW001
     FM300800 00000KT 1/4SM FG VV001
     FM302000 03003KT P6SM SKC=

USA.gov is the U.S. government's official web portal to all federal, state and local government web resources and services.